<?xml version='1.0' encoding='UTF-8'?><gpx version="1.1" creator="JPX - https://github.com/jenetics/jpx" xmlns="http://www.topografix.com/GPX/1/1"><trk><trkseg><trkpt lat="51.04211430430621" lon="2.3784753148176545"><ele>5.0</ele><time>2026-04-11T18:25:37Z</time></trkpt><trkpt lat="51.04218563557385" lon="2.378518899749597"><ele>5.0</ele><time>2026-04-11T18:25:41Z</time></trkpt><trkpt lat="51.04226470631773" lon="2.378560710721912"><ele>5.0</ele><time>2026-04-11T18:25:45Z</time></trkpt><trkpt lat="51.04243081036907" lon="2.37858012254392"><ele>5.0</ele><time>2026-04-11T18:25:52Z</time></trkpt><trkpt lat="51.042496638017184" lon="2.378703907795767"><ele>5.0</ele><time>2026-04-11T18:25:55Z</time></trkpt><trkpt lat="51.042545597064695" lon="2.3787961064539567"><ele>5.5</ele><time>2026-04-11T18:25:58Z</time></trkpt><trkpt lat="51.04261672342988" lon="2.3788843834362363"><ele>6.0</ele><time>2026-04-11T18:26:01Z</time></trkpt><trkpt lat="51.04265523328271" lon="2.3789683841712073"><ele>6.5</ele><time>2026-04-11T18:26:04Z</time></trkpt><trkpt lat="51.042723098861416" lon="2.3790272052344736"><ele>7.0</ele><time>2026-04-11T18:26:08Z</time></trkpt><trkpt lat="51.04280135783056" lon="2.3791559828475295"><ele>7.499999999999999</ele><time>2026-04-11T18:26:11.999Z</time></trkpt><trkpt lat="51.04286087739415" lon="2.3792202497538777"><ele>8.0</ele><time>2026-04-11T18:26:13.999Z</time></trkpt><trkpt lat="51.04288010453592" lon="2.3793268270235086"><ele>8.0</ele><time>2026-04-11T18:26:15.999Z</time></trkpt><trkpt lat="51.042930127261656" lon="2.3793918433620607"><ele>7.999999999999999</ele><time>2026-04-11T18:26:18.999Z</time></trkpt><trkpt lat="51.04298666817431" lon="2.3794992008899807"><ele>8.0</ele><time>2026-04-11T18:26:22.999Z</time></trkpt><trkpt lat="51.0430156959384" lon="2.3795915230947835"><ele>8.0</ele><time>2026-04-11T18:26:24.999Z</time></trkpt><trkpt lat="51.043048490457984" lon="2.379682905238824"><ele>7.999999999999999</ele><time>2026-04-11T18:26:28.999Z</time></trkpt><trkpt lat="51.043068590865644" lon="2.3797794284673546"><ele>8.0</ele><time>2026-04-11T18:26:33.999Z</time></trkpt><trkpt lat="51.04313162566192" lon="2.379833392817912"><ele>8.0</ele><time>2026-04-11T18:26:38.999Z</time></trkpt><trkpt lat="51.0431697676231" lon="2.379927116041789"><ele>7.857142857142857</ele><time>2026-04-11T18:26:41.999Z</time></trkpt><trkpt lat="51.04320672745431" lon="2.3800265293368374"><ele>7.7142857142857135</ele><time>2026-04-11T18:26:44.999Z</time></trkpt><trkpt lat="51.04326785939192" lon="2.380120075123938"><ele>7.571428571428571</ele><time>2026-04-11T18:26:48.999Z</time></trkpt><trkpt lat="51.04331150545843" lon="2.3802048362707997"><ele>7.428571428571429</ele><time>2026-04-11T18:26:51.999Z</time></trkpt><trkpt lat="51.043356161942704" lon="2.3802771239272116"><ele>7.285714285714286</ele><time>2026-04-11T18:26:54.999Z</time></trkpt><trkpt lat="51.04336794154277" lon="2.3803774344209843"><ele>7.142857142857142</ele><time>2026-04-11T18:26:56.999Z</time></trkpt><trkpt lat="51.0434171343929" lon="2.3804647494287163"><ele>7.0</ele><time>2026-04-11T18:26:58.999Z</time></trkpt><trkpt lat="51.043462193287915" lon="2.3805592948642174"><ele>6.857142857142857</ele><time>2026-04-11T18:27:00.999Z</time></trkpt><trkpt lat="51.04351560968166" lon="2.3806609129172815"><ele>6.714285714285714</ele><time>2026-04-11T18:27:03.999Z</time></trkpt><trkpt lat="51.0435692052857" lon="2.3807201525576165"><ele>6.571428571428571</ele><time>2026-04-11T18:27:05.999Z</time></trkpt><trkpt lat="51.043611168135214" lon="2.3808008210237186"><ele>6.428571428571429</ele><time>2026-04-11T18:27:10.999Z</time></trkpt><trkpt lat="51.04365069368657" lon="2.3808868983108122"><ele>6.285714285714286</ele><time>2026-04-11T18:27:14.999Z</time></trkpt><trkpt lat="51.04369443053321" lon="2.380984482592005"><ele>6.142857142857142</ele><time>2026-04-11T18:27:17.999Z</time></trkpt><trkpt lat="51.04374296307043" lon="2.3810699623930165"><ele>6.0</ele><time>2026-04-11T18:27:19.999Z</time></trkpt><trkpt lat="51.04376859552739" lon="2.381162902053695"><ele>6.0</ele><time>2026-04-11T18:27:21.999Z</time></trkpt><trkpt lat="51.043826204472396" lon="2.3812293643617757"><ele>6.0</ele><time>2026-04-11T18:27:26Z</time></trkpt><trkpt lat="51.04387615606932" lon="2.38133682726446"><ele>6.0</ele><time>2026-04-11T18:27:29Z</time></trkpt><trkpt lat="51.04391987618684" lon="2.3814190538597013"><ele>6.0</ele><time>2026-04-11T18:27:31Z</time></trkpt><trkpt lat="51.043976464509115" lon="2.381513598270991"><ele>6.0</ele><time>2026-04-11T18:27:34Z</time></trkpt><trkpt lat="51.0440123725575" lon="2.381598174828489"><ele>6.0</ele><time>2026-04-11T18:27:37Z</time></trkpt><trkpt lat="51.04403651633007" lon="2.3817345187126646"><ele>6.0</ele><time>2026-04-11T18:27:40Z</time></trkpt><trkpt lat="51.04406183438837" lon="2.381861257755759"><ele>6.0</ele><time>2026-04-11T18:27:43Z</time></trkpt><trkpt lat="51.044014949222" lon="2.381994773785394"><ele>6.0</ele><time>2026-04-11T18:27:46Z</time></trkpt><trkpt lat="51.04393913625345" lon="2.3820991745795213"><ele>6.0</ele><time>2026-04-11T18:27:49Z</time></trkpt><trkpt lat="51.04387053137576" lon="2.3821810519638325"><ele>6.0</ele><time>2026-04-11T18:27:53Z</time></trkpt><trkpt lat="51.04381184843853" lon="2.382260694039303"><ele>6.0</ele><time>2026-04-11T18:27:57Z</time></trkpt><trkpt lat="51.04373633878648" lon="2.3823412568419333"><ele>6.142857142857142</ele><time>2026-04-11T18:28:00Z</time></trkpt><trkpt lat="51.04368213716442" lon="2.382412188110766"><ele>6.285714285714286</ele><time>2026-04-11T18:28:02Z</time></trkpt><trkpt lat="51.043619722801104" lon="2.3824773022792463"><ele>6.428571428571429</ele><time>2026-04-11T18:28:07Z</time></trkpt><trkpt lat="51.043588090704965" lon="2.382609226913155"><ele>6.571428571428571</ele><time>2026-04-11T18:28:10Z</time></trkpt><trkpt lat="51.043577221735546" lon="2.382713012602165"><ele>6.714285714285714</ele><time>2026-04-11T18:28:12Z</time></trkpt><trkpt lat="51.04356302846369" lon="2.382814665207421"><ele>6.857142857142857</ele><time>2026-04-11T18:28:14Z</time></trkpt><trkpt lat="51.04353466282079" lon="2.382925942022456"><ele>7.0</ele><time>2026-04-11T18:28:15.999Z</time></trkpt><trkpt lat="51.043503040831574" lon="2.3830202795510367"><ele>7.000000000000001</ele><time>2026-04-11T18:28:17.999Z</time></trkpt><trkpt lat="51.043456724773336" lon="2.3831141083487783"><ele>7.0</ele><time>2026-04-11T18:28:20.999Z</time></trkpt><trkpt lat="51.04342823275885" lon="2.383249861068187"><ele>7.0</ele><time>2026-04-11T18:28:24.999Z</time></trkpt><trkpt lat="51.04340404260265" lon="2.383365282541844"><ele>7.0</ele><time>2026-04-11T18:28:26.999Z</time></trkpt><trkpt lat="51.043521758504056" lon="2.383423183274139"><ele>7.000000000000001</ele><time>2026-04-11T18:28:30.999Z</time></trkpt><trkpt lat="51.04358689068974" lon="2.3834381747089592"><ele>7.0</ele><time>2026-04-11T18:28:32.999Z</time></trkpt><trkpt lat="51.04369275991476" lon="2.38349134815682"><ele>7.000000000000001</ele><time>2026-04-11T18:28:37.999Z</time></trkpt><trkpt lat="51.04377483678153" lon="2.383523332370643"><ele>7.0</ele><time>2026-04-11T18:28:40.999Z</time></trkpt><trkpt lat="51.0438460777126" lon="2.3835965793176848"><ele>7.0</ele><time>2026-04-11T18:28:43.999Z</time></trkpt><trkpt lat="51.04389057602653" lon="2.3836686293471203"><ele>7.0</ele><time>2026-04-11T18:28:46.999Z</time></trkpt><trkpt lat="51.04395705615281" lon="2.383740572799262"><ele>7.000000000000001</ele><time>2026-04-11T18:28:50.999Z</time></trkpt><trkpt lat="51.04401416720229" lon="2.383806615180077"><ele>7.0</ele><time>2026-04-11T18:28:54.999Z</time></trkpt><trkpt lat="51.04409843901963" lon="2.383884510021571"><ele>7.000000000000001</ele><time>2026-04-11T18:28:57.999Z</time></trkpt><trkpt lat="51.044157646014646" lon="2.383979618869233"><ele>7.0</ele><time>2026-04-11T18:28:59.999Z</time></trkpt><trkpt lat="51.04421630395765" lon="2.384094844029401"><ele>7.0</ele><time>2026-04-11T18:29:01.999Z</time></trkpt><trkpt lat="51.04427845258847" lon="2.3841769540681788"><ele>7.0</ele><time>2026-04-11T18:29:03.999Z</time></trkpt><trkpt lat="51.04434078156956" lon="2.3842449275942665"><ele>7.000000000000001</ele><time>2026-04-11T18:29:05.999Z</time></trkpt><trkpt lat="51.04439271735976" lon="2.3843121252065393"><ele>7.0</ele><time>2026-04-11T18:29:07.999Z</time></trkpt><trkpt lat="51.04444441803605" lon="2.384378364859667"><ele>7.000000000000001</ele><time>2026-04-11T18:29:09.999Z</time></trkpt><trkpt lat="51.04451625231747" lon="2.3844571783593684"><ele>7.0</ele><time>2026-04-11T18:29:12.999Z</time></trkpt><trkpt lat="51.04456553960777" lon="2.384541647993772"><ele>7.0</ele><time>2026-04-11T18:29:15.999Z</time></trkpt><trkpt lat="51.04463113510829" lon="2.3846192086661437"><ele>7.0</ele><time>2026-04-11T18:29:18.999Z</time></trkpt><trkpt lat="51.04470261602686" lon="2.3847102119947077"><ele>7.000000000000001</ele><time>2026-04-11T18:29:21.999Z</time></trkpt><trkpt lat="51.04475640752971" lon="2.3848283250302553"><ele>7.0</ele><time>2026-04-11T18:29:24.999Z</time></trkpt><trkpt lat="51.044804328298866" lon="2.3849092831798653"><ele>7.000000000000001</ele><time>2026-04-11T18:29:27.999Z</time></trkpt><trkpt lat="51.04484641026732" lon="2.3849974626027923"><ele>7.0</ele><time>2026-04-11T18:29:32Z</time></trkpt><trkpt lat="51.044885800411805" lon="2.3850829135155474"><ele>7.0</ele><time>2026-04-11T18:29:37Z</time></trkpt><trkpt lat="51.044939798222984" lon="2.3852006459107535"><ele>7.0</ele><time>2026-04-11T18:29:40Z</time></trkpt><trkpt lat="51.04500265888199" lon="2.3853232553853774"><ele>7.000000000000001</ele><time>2026-04-11T18:29:43Z</time></trkpt><trkpt lat="51.04505091736012" lon="2.3854216410390015"><ele>7.0</ele><time>2026-04-11T18:29:45Z</time></trkpt><trkpt lat="51.04509451806204" lon="2.3855079498606115"><ele>6.833333333333334</ele><time>2026-04-11T18:29:47Z</time></trkpt><trkpt lat="51.04512756960347" lon="2.385598570300954"><ele>6.666666666666667</ele><time>2026-04-11T18:29:49Z</time></trkpt><trkpt lat="51.04511643537572" lon="2.385740912537909"><ele>6.5</ele><time>2026-04-11T18:29:52Z</time></trkpt><trkpt lat="51.04505617832954" lon="2.385777896975039"><ele>6.333333333333334</ele><time>2026-04-11T18:29:54Z</time></trkpt><trkpt lat="51.04498263603304" lon="2.3858325984982827"><ele>6.166666666666667</ele><time>2026-04-11T18:29:57Z</time></trkpt><trkpt lat="51.04491550385015" lon="2.3858887500291197"><ele>6.0</ele><time>2026-04-11T18:30:00Z</time></trkpt><trkpt lat="51.044851217704874" lon="2.3859445855643373"><ele>5.999999999999999</ele><time>2026-04-11T18:30:03Z</time></trkpt><trkpt lat="51.04478323866853" lon="2.385970782985997"><ele>6.0</ele><time>2026-04-11T18:30:06Z</time></trkpt><trkpt lat="51.04471210753121" lon="2.385988220098683"><ele>6.0</ele><time>2026-04-11T18:30:10Z</time></trkpt><trkpt lat="51.0447695498171" lon="2.386042976390105"><ele>6.0</ele><time>2026-04-11T18:30:17Z</time></trkpt><trkpt lat="51.04483100998047" lon="2.3859983646656966"><ele>6.0</ele><time>2026-04-11T18:30:19Z</time></trkpt><trkpt lat="51.044897478412594" lon="2.3859533381837243"><ele>5.999999999999999</ele><time>2026-04-11T18:30:21Z</time></trkpt><trkpt lat="51.04497637097598" lon="2.3858970672697937"><ele>6.0</ele><time>2026-04-11T18:30:24Z</time></trkpt><trkpt lat="51.04505397704935" lon="2.385845722710041"><ele>6.0</ele><time>2026-04-11T18:30:26Z</time></trkpt><trkpt lat="51.04511766046365" lon="2.385766924779531"><ele>6.0</ele><time>2026-04-11T18:30:28Z</time></trkpt><trkpt lat="51.045192441085014" lon="2.3857084153912065"><ele>6.0</ele><time>2026-04-11T18:30:31Z</time></trkpt><trkpt lat="51.045248841985014" lon="2.385645858115492"><ele>6.0</ele><time>2026-04-11T18:30:32.999Z</time></trkpt><trkpt lat="51.0453207630209" lon="2.385539184071497"><ele>6.0</ele><time>2026-04-11T18:30:34.999Z</time></trkpt><trkpt lat="51.04542004514863" lon="2.3854244409467573"><ele>6.199999999999999</ele><time>2026-04-11T18:30:36.999Z</time></trkpt><trkpt lat="51.04548381984275" lon="2.3853754226865593"><ele>6.3999999999999995</ele><time>2026-04-11T18:30:37.999Z</time></trkpt><trkpt lat="51.04555042016974" lon="2.385323899244551"><ele>6.6</ele><time>2026-04-11T18:30:38.999Z</time></trkpt><trkpt lat="51.04566195012391" lon="2.385253369680761"><ele>6.8</ele><time>2026-04-11T18:30:40.999Z</time></trkpt><trkpt lat="51.0457567882733" lon="2.385183554269628"><ele>7.0</ele><time>2026-04-11T18:30:42.999Z</time></trkpt><trkpt lat="51.04584052128257" lon="2.3851186509834665"><ele>7.0</ele><time>2026-04-11T18:30:44.999Z</time></trkpt><trkpt lat="51.04592078707022" lon="2.3850662795928494"><ele>7.0</ele><time>2026-04-11T18:30:46.999Z</time></trkpt><trkpt lat="51.045983073117284" lon="2.385008637517043"><ele>7.0</ele><time>2026-04-11T18:30:48.999Z</time></trkpt><trkpt lat="51.04604795438646" lon="2.384950517160491"><ele>7.0</ele><time>2026-04-11T18:30:50.999Z</time></trkpt><trkpt lat="51.04610512182116" lon="2.3849013507823575"><ele>7.0</ele><time>2026-04-11T18:30:52.999Z</time></trkpt><trkpt lat="51.046171763688584" lon="2.3848438290751948"><ele>7.0</ele><time>2026-04-11T18:30:55.999Z</time></trkpt><trkpt lat="51.046237875699994" lon="2.384821234334994"><ele>7.0</ele><time>2026-04-11T18:30:57.999Z</time></trkpt><trkpt lat="51.046334526601065" lon="2.3847335818998734"><ele>6.8</ele><time>2026-04-11T18:30:59.999Z</time></trkpt><trkpt lat="51.04643510183261" lon="2.384658581224781"><ele>6.6</ele><time>2026-04-11T18:31:01.999Z</time></trkpt><trkpt lat="51.0465122073561" lon="2.384526986643819"><ele>6.3999999999999995</ele><time>2026-04-11T18:31:03.999Z</time></trkpt><trkpt lat="51.04656828223865" lon="2.3843898018391214"><ele>6.199999999999999</ele><time>2026-04-11T18:31:05.999Z</time></trkpt><trkpt lat="51.046628766379634" lon="2.3843088990483543"><ele>6.0</ele><time>2026-04-11T18:31:07.999Z</time></trkpt><trkpt lat="51.04668277561082" lon="2.3842236923188724"><ele>5.999999999999999</ele><time>2026-04-11T18:31:09.999Z</time></trkpt><trkpt lat="51.04674502869992" lon="2.384205378962418"><ele>6.0</ele><time>2026-04-11T18:31:24.999Z</time></trkpt><trkpt lat="51.046681624553706" lon="2.384219173859479"><ele>6.0</ele><time>2026-04-11T18:34:24Z</time></trkpt><trkpt lat="51.04662450576428" lon="2.384290806374618"><ele>6.0</ele><time>2026-04-11T18:34:27Z</time></trkpt><trkpt lat="51.04656348390711" lon="2.3843853658173164"><ele>6.0</ele><time>2026-04-11T18:34:31Z</time></trkpt><trkpt lat="51.04653998413099" lon="2.384484793138552"><ele>5.999999999999999</ele><time>2026-04-11T18:34:35Z</time></trkpt><trkpt lat="51.04660356975492" lon="2.3844938354773038"><ele>6.0</ele><time>2026-04-11T18:34:38Z</time></trkpt><trkpt lat="51.04666290037124" lon="2.384428039257764"><ele>5.857142857142857</ele><time>2026-04-11T18:34:40Z</time></trkpt><trkpt lat="51.04671098623354" lon="2.384359745018116"><ele>5.714285714285714</ele><time>2026-04-11T18:34:42Z</time></trkpt><trkpt lat="51.04677174644029" lon="2.3842885407757084"><ele>5.571428571428571</ele><time>2026-04-11T18:34:44Z</time></trkpt><trkpt lat="51.046821258790025" lon="2.384206184989665"><ele>5.428571428571429</ele><time>2026-04-11T18:34:46Z</time></trkpt><trkpt lat="51.046877746828805" lon="2.3841443686840655"><ele>5.285714285714286</ele><time>2026-04-11T18:34:48Z</time></trkpt><trkpt lat="51.046924133386746" lon="2.3840704247399027"><ele>5.142857142857142</ele><time>2026-04-11T18:34:49.999Z</time></trkpt><trkpt lat="51.04697764826003" lon="2.384001978264088"><ele>5.0</ele><time>2026-04-11T18:34:51.999Z</time></trkpt><trkpt lat="51.0470307232181" lon="2.383940345884182"><ele>5.0</ele><time>2026-04-11T18:34:53.999Z</time></trkpt><trkpt lat="51.04709555245088" lon="2.383874053531825"><ele>5.0</ele><time>2026-04-11T18:34:56.999Z</time></trkpt><trkpt lat="51.047159687066916" lon="2.383843578015535"><ele>5.0</ele><time>2026-04-11T18:34:58.999Z</time></trkpt><trkpt lat="51.047243832301625" lon="2.3838217694127466"><ele>5.0</ele><time>2026-04-11T18:35:01.999Z</time></trkpt><trkpt lat="51.04732818657336" lon="2.383799120966489"><ele>5.0</ele><time>2026-04-11T18:35:04.999Z</time></trkpt><trkpt lat="51.04739458610924" lon="2.3838123327048217"><ele>5.0</ele><time>2026-04-11T18:35:07.999Z</time></trkpt><trkpt lat="51.047477517945794" lon="2.3838153017854142"><ele>5.166666666666667</ele><time>2026-04-11T18:35:11.999Z</time></trkpt><trkpt lat="51.04754948266576" lon="2.3837733091620774"><ele>5.333333333333334</ele><time>2026-04-11T18:35:15.999Z</time></trkpt><trkpt lat="51.04761030860314" lon="2.383722004669485"><ele>5.5</ele><time>2026-04-11T18:35:18.999Z</time></trkpt><trkpt lat="51.04770612763819" lon="2.383702846669932"><ele>5.666666666666667</ele><time>2026-04-11T18:35:21.999Z</time></trkpt><trkpt lat="51.047778420284715" lon="2.383690034055635"><ele>5.833333333333333</ele><time>2026-04-11T18:35:23.999Z</time></trkpt><trkpt lat="51.047851440826406" lon="2.3836832962929764"><ele>6.0</ele><time>2026-04-11T18:35:25.999Z</time></trkpt><trkpt lat="51.04792192886192" lon="2.383653985346699"><ele>5.999999999999999</ele><time>2026-04-11T18:35:27.999Z</time></trkpt><trkpt lat="51.04798218233298" lon="2.3836162458294683"><ele>6.0</ele><time>2026-04-11T18:35:29.999Z</time></trkpt><trkpt lat="51.0480454019423" lon="2.3835779639204038"><ele>6.0</ele><time>2026-04-11T18:35:31.999Z</time></trkpt><trkpt lat="51.04811204053977" lon="2.383567585915966"><ele>6.0</ele><time>2026-04-11T18:35:33.999Z</time></trkpt><trkpt lat="51.04820072262265" lon="2.383570589339003"><ele>6.0</ele><time>2026-04-11T18:35:36.999Z</time></trkpt><trkpt lat="51.04826475680607" lon="2.3835670701565776"><ele>5.999999999999999</ele><time>2026-04-11T18:35:38.999Z</time></trkpt><trkpt lat="51.04832821472083" lon="2.383554610387672"><ele>6.0</ele><time>2026-04-11T18:35:40.999Z</time></trkpt><trkpt lat="51.04841948400718" lon="2.3835424418884026"><ele>5.833333333333333</ele><time>2026-04-11T18:35:43.999Z</time></trkpt><trkpt lat="51.04848747757513" lon="2.3835362273114096"><ele>5.666666666666667</ele><time>2026-04-11T18:35:45.999Z</time></trkpt><trkpt lat="51.04857204040446" lon="2.3835061592761138"><ele>5.5</ele><time>2026-04-11T18:35:48.999Z</time></trkpt><trkpt lat="51.04864865052235" lon="2.3834480861554104"><ele>5.333333333333334</ele><time>2026-04-11T18:35:52Z</time></trkpt><trkpt lat="51.04871520600404" lon="2.383368559929883"><ele>5.166666666666667</ele><time>2026-04-11T18:35:55Z</time></trkpt><trkpt lat="51.04879363726731" lon="2.3833273391483356"><ele>5.0</ele><time>2026-04-11T18:35:57Z</time></trkpt><trkpt lat="51.04883099909579" lon="2.3831691522108467"><ele>5.2</ele><time>2026-04-11T18:35:59Z</time></trkpt><trkpt lat="51.04878348850944" lon="2.3830024029578523"><ele>5.4</ele><time>2026-04-11T18:36:01Z</time></trkpt><trkpt lat="51.04877035208603" lon="2.3828438335850897"><ele>5.6</ele><time>2026-04-11T18:36:03Z</time></trkpt><trkpt lat="51.04875492686704" lon="2.3826981169109454"><ele>5.8</ele><time>2026-04-11T18:36:05Z</time></trkpt><trkpt lat="51.048728492945166" lon="2.3825708118757416"><ele>6.0</ele><time>2026-04-11T18:36:07Z</time></trkpt><trkpt lat="51.04871063195173" lon="2.3824438595235082"><ele>6.0</ele><time>2026-04-11T18:36:09Z</time></trkpt><trkpt lat="51.04868038658425" lon="2.3823270916364363"><ele>6.0</ele><time>2026-04-11T18:36:11Z</time></trkpt><trkpt lat="51.04866737775761" lon="2.3822260124417207"><ele>6.0</ele><time>2026-04-11T18:36:13Z</time></trkpt><trkpt lat="51.048656389080776" lon="2.3820810300159"><ele>6.0</ele><time>2026-04-11T18:36:16Z</time></trkpt><trkpt lat="51.04862057908878" lon="2.381968467932738"><ele>6.0</ele><time>2026-04-11T18:36:18Z</time></trkpt><trkpt lat="51.04860310720156" lon="2.381856392436476"><ele>6.0</ele><time>2026-04-11T18:36:20Z</time></trkpt><trkpt lat="51.04857255418237" lon="2.3817468541331412"><ele>5.999999999999999</ele><time>2026-04-11T18:36:22Z</time></trkpt><trkpt lat="51.04854641441125" lon="2.3816444363"><ele>6.0</ele><time>2026-04-11T18:36:24Z</time></trkpt><trkpt lat="51.048540725709984" lon="2.3815390224305646"><ele>6.0</ele><time>2026-04-11T18:36:26Z</time></trkpt><trkpt lat="51.04851042563228" lon="2.381450544006503"><ele>6.0</ele><time>2026-04-11T18:36:28Z</time></trkpt><trkpt lat="51.04851987215959" lon="2.3813445993279223"><ele>6.0</ele><time>2026-04-11T18:36:31Z</time></trkpt><trkpt lat="51.04851607734947" lon="2.3812345635426166"><ele>5.999999999999999</ele><time>2026-04-11T18:36:36Z</time></trkpt><trkpt lat="51.048491256587354" lon="2.3810915246395945"><ele>6.0</ele><time>2026-04-11T18:36:39Z</time></trkpt><trkpt lat="51.0484979423359" lon="2.3809834653051754"><ele>6.0</ele><time>2026-04-11T18:36:41Z</time></trkpt><trkpt lat="51.048497946607526" lon="2.3808638497962398"><ele>6.0</ele><time>2026-04-11T18:36:43Z</time></trkpt><trkpt lat="51.04850978446526" lon="2.380733363509214"><ele>6.0</ele><time>2026-04-11T18:36:45Z</time></trkpt><trkpt lat="51.048529710208356" lon="2.380604045612005"><ele>6.0</ele><time>2026-04-11T18:36:47Z</time></trkpt><trkpt lat="51.04852329947816" lon="2.3804934372116464"><ele>6.0</ele><time>2026-04-11T18:36:49Z</time></trkpt><trkpt lat="51.04855403860323" lon="2.380373971094958"><ele>6.0</ele><time>2026-04-11T18:36:52Z</time></trkpt><trkpt lat="51.04857151805238" lon="2.3802758692136154"><ele>6.166666666666667</ele><time>2026-04-11T18:36:55Z</time></trkpt><trkpt lat="51.048612238412964" lon="2.3801664366855495"><ele>6.333333333333334</ele><time>2026-04-11T18:36:57.999Z</time></trkpt><trkpt lat="51.04865145098514" lon="2.3800524023121907"><ele>6.5</ele><time>2026-04-11T18:37:00.999Z</time></trkpt><trkpt lat="51.04868677813541" lon="2.3799338680838114"><ele>6.666666666666667</ele><time>2026-04-11T18:37:04.999Z</time></trkpt><trkpt lat="51.04874647732465" lon="2.3798254867969306"><ele>6.833333333333334</ele><time>2026-04-11T18:37:07.999Z</time></trkpt><trkpt lat="51.04877867328558" lon="2.3797346672065776"><ele>7.0</ele><time>2026-04-11T18:37:09.999Z</time></trkpt><trkpt lat="51.04881059431339" lon="2.3796414598989615"><ele>6.500000000000001</ele><time>2026-04-11T18:37:11.999Z</time></trkpt><trkpt lat="51.04885073321366" lon="2.37953304270769"><ele>6.0</ele><time>2026-04-11T18:37:14.999Z</time></trkpt><trkpt lat="51.04888536114412" lon="2.3794400219848124"><ele>5.5</ele><time>2026-04-11T18:37:18.999Z</time></trkpt><trkpt lat="51.048940194623384" lon="2.3793269641234773"><ele>5.0</ele><time>2026-04-11T18:37:22.999Z</time></trkpt><trkpt lat="51.04897909969723" lon="2.379237967677976"><ele>4.5</ele><time>2026-04-11T18:37:25.999Z</time></trkpt><trkpt lat="51.048934527861036" lon="2.379346894032284"><ele>4.0</ele><time>2026-04-11T18:37:45.999Z</time></trkpt><trkpt lat="51.04888016760698" lon="2.3794437531660386"><ele>4.0</ele><time>2026-04-11T18:37:47.999Z</time></trkpt><trkpt lat="51.048848508155366" lon="2.3795412506811973"><ele>3.9999999999999996</ele><time>2026-04-11T18:37:49.999Z</time></trkpt><trkpt lat="51.04881089868681" lon="2.3796226268615692"><ele>4.0</ele><time>2026-04-11T18:37:51.999Z</time></trkpt><trkpt lat="51.04877097880475" lon="2.379741171492744"><ele>4.0</ele><time>2026-04-11T18:37:54.999Z</time></trkpt><trkpt lat="51.04872505552153" lon="2.3798269327153756"><ele>3.9999999999999996</ele><time>2026-04-11T18:37:58Z</time></trkpt><trkpt lat="51.04868093111232" lon="2.3799343477590047"><ele>4.0</ele><time>2026-04-11T18:38:02Z</time></trkpt><trkpt lat="51.04864165575962" lon="2.3800384423795338"><ele>4.0</ele><time>2026-04-11T18:38:06Z</time></trkpt><trkpt lat="51.048605978137196" lon="2.380128781500428"><ele>4.333333333333333</ele><time>2026-04-11T18:38:08Z</time></trkpt><trkpt lat="51.04855552967516" lon="2.380250132423672"><ele>4.666666666666666</ele><time>2026-04-11T18:38:10Z</time></trkpt><trkpt lat="51.04850455003497" lon="2.380387238405758"><ele>5.0</ele><time>2026-04-11T18:38:12Z</time></trkpt><trkpt lat="51.04846210305816" lon="2.3805132328971803"><ele>5.333333333333333</ele><time>2026-04-11T18:38:14Z</time></trkpt><trkpt lat="51.04840968194922" lon="2.3806183266769887"><ele>5.666666666666667</ele><time>2026-04-11T18:38:16Z</time></trkpt><trkpt lat="51.04835135858209" lon="2.380701541517606"><ele>6.0</ele><time>2026-04-11T18:38:18Z</time></trkpt><trkpt lat="51.0482981165607" lon="2.3807782057098006"><ele>5.999999999999999</ele><time>2026-04-11T18:38:20Z</time></trkpt><trkpt lat="51.048273350305166" lon="2.380917161136201"><ele>6.0</ele><time>2026-04-11T18:38:23Z</time></trkpt><trkpt lat="51.04823139422464" lon="2.3810133507250755"><ele>6.0</ele><time>2026-04-11T18:38:26Z</time></trkpt><trkpt lat="51.04818244846987" lon="2.3810855609272576"><ele>6.0</ele><time>2026-04-11T18:38:29Z</time></trkpt><trkpt lat="51.048190484395185" lon="2.3811930241376156"><ele>6.0</ele><time>2026-04-11T18:38:32Z</time></trkpt><trkpt lat="51.04826539969726" lon="2.3812175968768003"><ele>5.999999999999999</ele><time>2026-04-11T18:38:35Z</time></trkpt><trkpt lat="51.048251553451514" lon="2.3811114935005895"><ele>6.0</ele><time>2026-04-11T18:38:38Z</time></trkpt><trkpt lat="51.04825972350557" lon="2.381004112847285"><ele>5.999999999999999</ele><time>2026-04-11T18:38:42Z</time></trkpt><trkpt lat="51.04829783149907" lon="2.380896721817505"><ele>6.0</ele><time>2026-04-11T18:38:47Z</time></trkpt><trkpt lat="51.04832316586771" lon="2.3807869822062804"><ele>6.0</ele><time>2026-04-11T18:38:50Z</time></trkpt><trkpt lat="51.04836124731233" lon="2.380706171503526"><ele>6.0</ele><time>2026-04-11T18:38:54Z</time></trkpt><trkpt lat="51.04844432797536" lon="2.3806665097319284"><ele>6.0</ele><time>2026-04-11T18:39:03Z</time></trkpt><trkpt lat="51.04848566793871" lon="2.38076750330319"><ele>5.999999999999999</ele><time>2026-04-11T18:39:05Z</time></trkpt><trkpt lat="51.04849608668595" lon="2.3808749475981825"><ele>6.0</ele><time>2026-04-11T18:39:06.999Z</time></trkpt><trkpt lat="51.048486145995604" lon="2.3809961290964474"><ele>6.0</ele><time>2026-04-11T18:39:09.999Z</time></trkpt><trkpt lat="51.048513527380706" lon="2.3811019211404267"><ele>6.0</ele><time>2026-04-11T18:39:12.999Z</time></trkpt><trkpt lat="51.04851742065055" lon="2.381222335516744"><ele>6.0</ele><time>2026-04-11T18:39:16.999Z</time></trkpt><trkpt lat="51.04852293293791" lon="2.3813465220026"><ele>6.0</ele><time>2026-04-11T18:39:20.999Z</time></trkpt><trkpt lat="51.04854118117086" lon="2.381466419049108"><ele>6.0</ele><time>2026-04-11T18:39:24.999Z</time></trkpt><trkpt lat="51.04854746307145" lon="2.38157590698514"><ele>6.0</ele><time>2026-04-11T18:39:27.999Z</time></trkpt><trkpt lat="51.04850942499261" lon="2.381709706951199"><ele>5.999999999999999</ele><time>2026-04-11T18:39:48.999Z</time></trkpt><trkpt lat="51.04853100232469" lon="2.3818189688610545"><ele>6.0</ele><time>2026-04-11T18:39:51.999Z</time></trkpt><trkpt lat="51.048541846386804" lon="2.3819214658486754"><ele>6.0</ele><time>2026-04-11T18:39:54.999Z</time></trkpt><trkpt lat="51.04855384101234" lon="2.3820506291933734"><ele>6.0</ele><time>2026-04-11T18:39:57.999Z</time></trkpt><trkpt lat="51.0485682834704" lon="2.3821680370785"><ele>6.0</ele><time>2026-04-11T18:40:00.999Z</time></trkpt><trkpt lat="51.048576175264216" lon="2.3822691683490853"><ele>5.999999999999999</ele><time>2026-04-11T18:40:04Z</time></trkpt><trkpt lat="51.04859268675782" lon="2.382396493471217"><ele>6.0</ele><time>2026-04-11T18:40:08Z</time></trkpt><trkpt lat="51.048609117066206" lon="2.382514780748404"><ele>6.0</ele><time>2026-04-11T18:40:11Z</time></trkpt><trkpt lat="51.04863238787281" lon="2.382656938300739"><ele>6.0</ele><time>2026-04-11T18:40:14Z</time></trkpt><trkpt lat="51.04864374984061" lon="2.382773440285805"><ele>6.0</ele><time>2026-04-11T18:40:16Z</time></trkpt><trkpt lat="51.04866541298296" lon="2.3828950694863935"><ele>6.0</ele><time>2026-04-11T18:40:18Z</time></trkpt><trkpt lat="51.04868456653962" lon="2.3830106780982327"><ele>6.0</ele><time>2026-04-11T18:40:20Z</time></trkpt><trkpt lat="51.048713687775916" lon="2.3831343381160512"><ele>6.0</ele><time>2026-04-11T18:40:22Z</time></trkpt><trkpt lat="51.048740129548186" lon="2.3832663968280965"><ele>5.833333333333333</ele><time>2026-04-11T18:40:24Z</time></trkpt><trkpt lat="51.048768045294054" lon="2.38340967918324"><ele>5.666666666666667</ele><time>2026-04-11T18:40:26Z</time></trkpt><trkpt lat="51.04879898244153" lon="2.3835370517652885"><ele>5.5</ele><time>2026-04-11T18:40:28Z</time></trkpt><trkpt lat="51.04883218844692" lon="2.383637154378247"><ele>5.333333333333334</ele><time>2026-04-11T18:40:30Z</time></trkpt><trkpt lat="51.04886975828692" lon="2.3837348873185276"><ele>5.166666666666667</ele><time>2026-04-11T18:40:32Z</time></trkpt><trkpt lat="51.048897086276774" lon="2.383835540661322"><ele>5.0</ele><time>2026-04-11T18:40:34Z</time></trkpt><trkpt lat="51.048930626710835" lon="2.3839691633038966"><ele>5.285714285714286</ele><time>2026-04-11T18:40:37Z</time></trkpt><trkpt lat="51.048954123352416" lon="2.38406649718319"><ele>5.571428571428571</ele><time>2026-04-11T18:40:39Z</time></trkpt><trkpt lat="51.04892830889859" lon="2.384191493441844"><ele>5.857142857142858</ele><time>2026-04-11T18:40:42Z</time></trkpt><trkpt lat="51.048853953445054" lon="2.3841760975689263"><ele>6.142857142857142</ele><time>2026-04-11T18:40:45Z</time></trkpt><trkpt lat="51.04879595088222" lon="2.3842233514476345"><ele>6.428571428571429</ele><time>2026-04-11T18:40:48Z</time></trkpt><trkpt lat="51.048749517581484" lon="2.3841209069749802"><ele>6.714285714285714</ele><time>2026-04-11T18:40:52Z</time></trkpt><trkpt lat="51.04872726848369" lon="2.384012834477897"><ele>7.0</ele><time>2026-04-11T18:40:55Z</time></trkpt><trkpt lat="51.04870210841884" lon="2.384133599710739"><ele>7.000000000000001</ele><time>2026-04-11T18:41:00Z</time></trkpt><trkpt lat="51.048721060402386" lon="2.3842459195145027"><ele>7.0</ele><time>2026-04-11T18:41:03Z</time></trkpt><trkpt lat="51.048647889663364" lon="2.38419236270688"><ele>7.0</ele><time>2026-04-11T18:41:08Z</time></trkpt><trkpt lat="51.04859839961254" lon="2.384085953710554"><ele>7.0</ele><time>2026-04-11T18:41:11.999Z</time></trkpt><trkpt lat="51.04854426001215" lon="2.383978247458168"><ele>7.000000000000001</ele><time>2026-04-11T18:41:15.999Z</time></trkpt><trkpt lat="51.0484799416398" lon="2.3839452279800453"><ele>7.0</ele><time>2026-04-11T18:41:17.999Z</time></trkpt><trkpt lat="51.0484010558343" lon="2.3839434969038096"><ele>7.000000000000001</ele><time>2026-04-11T18:41:19.999Z</time></trkpt><trkpt lat="51.04831579458722" lon="2.3839739125225163"><ele>7.0</ele><time>2026-04-11T18:41:22.999Z</time></trkpt><trkpt lat="51.04826873764476" lon="2.3840454704050633"><ele>7.0</ele><time>2026-04-11T18:41:24.999Z</time></trkpt><trkpt lat="51.04818920958225" lon="2.384041089169147"><ele>7.0</ele><time>2026-04-11T18:41:28.999Z</time></trkpt><trkpt lat="51.04814101856497" lon="2.383950294378395"><ele>7.000000000000001</ele><time>2026-04-11T18:41:32.999Z</time></trkpt><trkpt lat="51.04814762571635" lon="2.3838327965235755"><ele>7.0</ele><time>2026-04-11T18:41:35.999Z</time></trkpt><trkpt lat="51.048141331657696" lon="2.3837150486536194"><ele>6.857142857142857</ele><time>2026-04-11T18:41:38.999Z</time></trkpt><trkpt lat="51.048111594043824" lon="2.3836235112179502"><ele>6.714285714285714</ele><time>2026-04-11T18:41:41.999Z</time></trkpt><trkpt lat="51.04803482150511" lon="2.3836161282576063"><ele>6.571428571428571</ele><time>2026-04-11T18:41:44.999Z</time></trkpt><trkpt lat="51.047969599528145" lon="2.3836316888929914"><ele>6.428571428571429</ele><time>2026-04-11T18:41:46.999Z</time></trkpt><trkpt lat="51.04789918483083" lon="2.383646163837978"><ele>6.285714285714286</ele><time>2026-04-11T18:41:48.999Z</time></trkpt><trkpt lat="51.04780142137272" lon="2.3836666315358794"><ele>6.142857142857142</ele><time>2026-04-11T18:41:51.999Z</time></trkpt><trkpt lat="51.04773188852989" lon="2.383665505088686"><ele>6.0</ele><time>2026-04-11T18:41:53.999Z</time></trkpt><trkpt lat="51.04765377746587" lon="2.383653513015248"><ele>6.0</ele><time>2026-04-11T18:41:56.999Z</time></trkpt><trkpt lat="51.04757121814683" lon="2.3836755772136162"><ele>6.0</ele><time>2026-04-11T18:41:59.999Z</time></trkpt><trkpt lat="51.04749009793376" lon="2.383713752348655"><ele>6.0</ele><time>2026-04-11T18:42:02.999Z</time></trkpt><trkpt lat="51.04742453862723" lon="2.38372014660243"><ele>6.0</ele><time>2026-04-11T18:42:06.999Z</time></trkpt><trkpt lat="51.04735581962435" lon="2.3837539993826007"><ele>6.0</ele><time>2026-04-11T18:42:10Z</time></trkpt><trkpt lat="51.04727693027315" lon="2.383770888916123"><ele>6.0</ele><time>2026-04-11T18:42:13Z</time></trkpt><trkpt lat="51.047210538023876" lon="2.3838017187434715"><ele>5.833333333333333</ele><time>2026-04-11T18:42:17Z</time></trkpt><trkpt lat="51.0471235736617" lon="2.3838154634586766"><ele>5.666666666666667</ele><time>2026-04-11T18:42:21Z</time></trkpt><trkpt lat="51.04704963208036" lon="2.3838654252482847"><ele>5.5</ele><time>2026-04-11T18:42:25Z</time></trkpt><trkpt lat="51.046989740228206" lon="2.3839298283769974"><ele>5.333333333333334</ele><time>2026-04-11T18:42:29Z</time></trkpt><trkpt lat="51.046930207314475" lon="2.3840052488802588"><ele>5.166666666666667</ele><time>2026-04-11T18:42:33Z</time></trkpt><trkpt lat="51.046873440887374" lon="2.3840950908620946"><ele>5.0</ele><time>2026-04-11T18:42:37Z</time></trkpt><trkpt lat="51.04682864755221" lon="2.384166330120573"><ele>5.0</ele><time>2026-04-11T18:42:40Z</time></trkpt><trkpt lat="51.04677996483514" lon="2.3842349047762053"><ele>5.0</ele><time>2026-04-11T18:42:43Z</time></trkpt><trkpt lat="51.04672419983988" lon="2.38430243128815"><ele>5.0</ele><time>2026-04-11T18:42:46Z</time></trkpt><trkpt lat="51.04666869957452" lon="2.384370986446769"><ele>5.0</ele><time>2026-04-11T18:42:49Z</time></trkpt><trkpt lat="51.04659798823296" lon="2.384429724085179"><ele>5.0</ele><time>2026-04-11T18:42:53Z</time></trkpt><trkpt lat="51.04653825788122" lon="2.3845251091944304"><ele>5.0</ele><time>2026-04-11T18:42:57Z</time></trkpt><trkpt lat="51.046482496804416" lon="2.3845722541835697"><ele>5.0</ele><time>2026-04-11T18:42:59Z</time></trkpt><trkpt lat="51.04640701497478" lon="2.384618161012101"><ele>5.166666666666667</ele><time>2026-04-11T18:43:02Z</time></trkpt><trkpt lat="51.046348208960275" lon="2.384671363744892"><ele>5.333333333333334</ele><time>2026-04-11T18:43:05Z</time></trkpt><trkpt lat="51.046282054091925" lon="2.3847448445533885"><ele>5.5</ele><time>2026-04-11T18:43:09Z</time></trkpt><trkpt lat="51.046220280170026" lon="2.3847969228118777"><ele>5.666666666666667</ele><time>2026-04-11T18:43:12.999Z</time></trkpt><trkpt lat="51.04614242122748" lon="2.3848371331271707"><ele>5.833333333333333</ele><time>2026-04-11T18:43:16.999Z</time></trkpt><trkpt lat="51.04605338240115" lon="2.384911355130277"><ele>6.0</ele><time>2026-04-11T18:43:19.999Z</time></trkpt><trkpt lat="51.04596601410801" lon="2.3849664923145513"><ele>6.166666666666667</ele><time>2026-04-11T18:43:22.999Z</time></trkpt><trkpt lat="51.045891142408365" lon="2.38502801742734"><ele>6.333333333333334</ele><time>2026-04-11T18:43:25.999Z</time></trkpt><trkpt lat="51.04583053419371" lon="2.3850796587605694"><ele>6.5</ele><time>2026-04-11T18:43:28.999Z</time></trkpt><trkpt lat="51.045770187973275" lon="2.3851423912927943"><ele>6.666666666666667</ele><time>2026-04-11T18:43:32.999Z</time></trkpt><trkpt lat="51.04568708846466" lon="2.3851774265432835"><ele>6.833333333333334</ele><time>2026-04-11T18:43:37.999Z</time></trkpt><trkpt lat="51.04562002318257" lon="2.3852483867337453"><ele>7.0</ele><time>2026-04-11T18:43:40.999Z</time></trkpt><trkpt lat="51.04554143285424" lon="2.385309265250351"><ele>6.833333333333334</ele><time>2026-04-11T18:43:43.999Z</time></trkpt><trkpt lat="51.045470186639605" lon="2.3853396855404934"><ele>6.666666666666667</ele><time>2026-04-11T18:43:46.999Z</time></trkpt><trkpt lat="51.04540000625751" lon="2.3853928418674397"><ele>6.5</ele><time>2026-04-11T18:43:49.999Z</time></trkpt><trkpt lat="51.045330602590475" lon="2.385465240093269"><ele>6.333333333333334</ele><time>2026-04-11T18:43:52.999Z</time></trkpt><trkpt lat="51.04526527089176" lon="2.385522380576525"><ele>6.166666666666667</ele><time>2026-04-11T18:43:56.999Z</time></trkpt><trkpt lat="51.04521280162489" lon="2.3855894817155"><ele>6.0</ele><time>2026-04-11T18:44:03.999Z</time></trkpt><trkpt lat="51.04514884513864" lon="2.3856944989130544"><ele>5.999999999999999</ele><time>2026-04-11T18:44:06.999Z</time></trkpt><trkpt lat="51.045086588432206" lon="2.3857670724246045"><ele>6.0</ele><time>2026-04-11T18:44:09.999Z</time></trkpt><trkpt lat="51.045027963457315" lon="2.3858325133009135"><ele>6.0</ele><time>2026-04-11T18:44:12.999Z</time></trkpt><trkpt lat="51.0449637603114" lon="2.385879520450993"><ele>6.0</ele><time>2026-04-11T18:44:16Z</time></trkpt><trkpt lat="51.044904025438775" lon="2.385915928383608"><ele>6.0</ele><time>2026-04-11T18:44:19Z</time></trkpt><trkpt lat="51.044830897883074" lon="2.385976430585054"><ele>5.999999999999999</ele><time>2026-04-11T18:44:23Z</time></trkpt><trkpt lat="51.04475022236559" lon="2.385991752779416"><ele>6.0</ele><time>2026-04-11T18:44:27Z</time></trkpt><trkpt lat="51.04467788772479" lon="2.3860450818347605"><ele>5.833333333333333</ele><time>2026-04-11T18:44:30Z</time></trkpt><trkpt lat="51.04460341986868" lon="2.3860638421732348"><ele>5.666666666666667</ele><time>2026-04-11T18:44:33Z</time></trkpt><trkpt lat="51.0445231982625" lon="2.3860911039797026"><ele>5.5</ele><time>2026-04-11T18:44:35Z</time></trkpt><trkpt lat="51.044458486409155" lon="2.3861146919288223"><ele>5.333333333333334</ele><time>2026-04-11T18:44:37Z</time></trkpt><trkpt lat="51.04439003978382" lon="2.386122902454853"><ele>5.166666666666667</ele><time>2026-04-11T18:44:39Z</time></trkpt><trkpt lat="51.04430983483216" lon="2.3861511561915365"><ele>5.0</ele><time>2026-04-11T18:44:42Z</time></trkpt><trkpt lat="51.044227700542656" lon="2.38619021195962"><ele>5.0</ele><time>2026-04-11T18:44:45Z</time></trkpt><trkpt lat="51.044167502716284" lon="2.386279611068575"><ele>5.0</ele><time>2026-04-11T18:44:48Z</time></trkpt><trkpt lat="51.04412103045168" lon="2.3863689105061505"><ele>5.0</ele><time>2026-04-11T18:44:52Z</time></trkpt><trkpt lat="51.04406169762593" lon="2.3864312303513815"><ele>5.0</ele><time>2026-04-11T18:44:57Z</time></trkpt><trkpt lat="51.04399623270482" lon="2.38648027068991"><ele>5.0</ele><time>2026-04-11T18:45:02Z</time></trkpt><trkpt lat="51.04392420326042" lon="2.3865247346548992"><ele>5.0</ele><time>2026-04-11T18:45:08Z</time></trkpt><trkpt lat="51.04385288314968" lon="2.3865123995676125"><ele>5.0</ele><time>2026-04-11T18:45:11.999Z</time></trkpt><trkpt lat="51.04392319922365" lon="2.386517942310948"><ele>5.0</ele><time>2026-04-11T18:45:20.999Z</time></trkpt><trkpt lat="51.04398460487755" lon="2.3864465191929867"><ele>5.0</ele><time>2026-04-11T18:45:24.999Z</time></trkpt><trkpt lat="51.044048530079536" lon="2.3864208677574124"><ele>5.0</ele><time>2026-04-11T18:45:28.999Z</time></trkpt><trkpt lat="51.044116979455445" lon="2.3863802789569206"><ele>5.0</ele><time>2026-04-11T18:45:33.999Z</time></trkpt><trkpt lat="51.04417546740685" lon="2.3863225222925575"><ele>5.0</ele><time>2026-04-11T18:45:38.999Z</time></trkpt><trkpt lat="51.04424702299814" lon="2.3862582095881915"><ele>5.0</ele><time>2026-04-11T18:45:43.999Z</time></trkpt><trkpt lat="51.044301089163696" lon="2.3861953291132387"><ele>5.0</ele><time>2026-04-11T18:45:48.999Z</time></trkpt><trkpt lat="51.04436967856337" lon="2.3861581863514445"><ele>5.0</ele><time>2026-04-11T18:45:52.999Z</time></trkpt><trkpt lat="51.04443489776714" lon="2.3861127048083794"><ele>5.0</ele><time>2026-04-11T18:45:56.999Z</time></trkpt><trkpt lat="51.044502695119" lon="2.386077986780629"><ele>5.0</ele><time>2026-04-11T18:46:01.999Z</time></trkpt><trkpt lat="51.04457994510985" lon="2.386067845146029"><ele>5.0</ele><time>2026-04-11T18:46:04.999Z</time></trkpt><trkpt lat="51.04465216741337" lon="2.3860524210368466"><ele>5.0</ele><time>2026-04-11T18:46:09.999Z</time></trkpt><trkpt lat="51.0446489999232" lon="2.3859505361249442"><ele>5.0</ele><time>2026-04-11T18:49:53.999Z</time></trkpt><trkpt lat="51.044691509750024" lon="2.3860244818776204"><ele>5.0</ele><time>2026-04-11T18:59:10Z</time></trkpt><trkpt lat="51.04486658877879" lon="2.385973607320265"><ele>5.0</ele><time>2026-04-11T18:59:25Z</time></trkpt><trkpt lat="51.04493514053276" lon="2.3859303673193577"><ele>5.0</ele><time>2026-04-11T18:59:28Z</time></trkpt><trkpt lat="51.04502359265757" lon="2.3858714619668158"><ele>5.0</ele><time>2026-04-11T18:59:30Z</time></trkpt><trkpt lat="51.045074702248584" lon="2.3858093192740344"><ele>5.0</ele><time>2026-04-11T18:59:33Z</time></trkpt><trkpt lat="51.04514177060724" lon="2.3857350307107668"><ele>5.0</ele><time>2026-04-11T18:59:36Z</time></trkpt><trkpt lat="51.04519893119842" lon="2.3856843329138564"><ele>5.0</ele><time>2026-04-11T18:59:44.999Z</time></trkpt><trkpt lat="51.04526097657904" lon="2.3856372756821873"><ele>4.857142857142857</ele><time>2026-04-11T18:59:47.999Z</time></trkpt><trkpt lat="51.04527319901995" lon="2.3855025157254555"><ele>4.714285714285714</ele><time>2026-04-11T18:59:50.999Z</time></trkpt><trkpt lat="51.04521650450138" lon="2.3854373212485034"><ele>4.571428571428571</ele><time>2026-04-11T18:59:52.999Z</time></trkpt><trkpt lat="51.04517400370976" lon="2.385345498119712"><ele>4.428571428571429</ele><time>2026-04-11T18:59:55.999Z</time></trkpt><trkpt lat="51.045129280325305" lon="2.385263168464423"><ele>4.285714285714286</ele><time>2026-04-11T18:59:59.999Z</time></trkpt><trkpt lat="51.0450840047254" lon="2.3851741211618624"><ele>4.142857142857142</ele><time>2026-04-11T19:00:01.999Z</time></trkpt><trkpt lat="51.04503631156512" lon="2.385099592284851"><ele>4.0</ele><time>2026-04-11T19:00:03.999Z</time></trkpt><trkpt lat="51.04498887252067" lon="2.3850039923332282"><ele>4.428571428571429</ele><time>2026-04-11T19:00:06.999Z</time></trkpt><trkpt lat="51.044942524286995" lon="2.3849063260968926"><ele>4.857142857142857</ele><time>2026-04-11T19:00:10.999Z</time></trkpt><trkpt lat="51.044903450702506" lon="2.3848123063754216"><ele>5.285714285714286</ele><time>2026-04-11T19:00:14.999Z</time></trkpt><trkpt lat="51.04484836386986" lon="2.384709458306185"><ele>5.714285714285714</ele><time>2026-04-11T19:00:17.999Z</time></trkpt><trkpt lat="51.04481467708543" lon="2.38462246736514"><ele>6.142857142857142</ele><time>2026-04-11T19:00:19.999Z</time></trkpt><trkpt lat="51.04477270830922" lon="2.38454403444538"><ele>6.571428571428571</ele><time>2026-04-11T19:00:21.999Z</time></trkpt><trkpt lat="51.04475089151306" lon="2.3844460194903263"><ele>7.0</ele><time>2026-04-11T19:00:24.999Z</time></trkpt><trkpt lat="51.04471083014155" lon="2.3843575222388127"><ele>7.000000000000001</ele><time>2026-04-11T19:00:27.999Z</time></trkpt><trkpt lat="51.04467684223746" lon="2.3842261292596856"><ele>7.0</ele><time>2026-04-11T19:00:31.999Z</time></trkpt><trkpt lat="51.04463912753326" lon="2.3841012412344798"><ele>7.0</ele><time>2026-04-11T19:00:33.999Z</time></trkpt><trkpt lat="51.044585613774075" lon="2.383993655804943"><ele>7.0</ele><time>2026-04-11T19:00:36.999Z</time></trkpt><trkpt lat="51.04453110382886" lon="2.383873289780172"><ele>7.000000000000001</ele><time>2026-04-11T19:00:39.999Z</time></trkpt><trkpt lat="51.04448809188036" lon="2.383784430462645"><ele>7.0</ele><time>2026-04-11T19:00:43.999Z</time></trkpt><trkpt lat="51.04441719676079" lon="2.3838046844178074"><ele>7.000000000000001</ele><time>2026-04-11T19:00:51.999Z</time></trkpt><trkpt lat="51.04434176485219" lon="2.383826065010314"><ele>7.0</ele><time>2026-04-11T19:00:54.998Z</time></trkpt><trkpt lat="51.04428301450095" lon="2.383763035465809"><ele>7.0</ele><time>2026-04-11T19:00:56.998Z</time></trkpt><trkpt lat="51.0442088151454" lon="2.383660525626336"><ele>7.0</ele><time>2026-04-11T19:00:58.998Z</time></trkpt><trkpt lat="51.0441436191826" lon="2.383580654060658"><ele>7.000000000000001</ele><time>2026-04-11T19:01:00.998Z</time></trkpt><trkpt lat="51.04409198368936" lon="2.3835175267438897"><ele>7.0</ele><time>2026-04-11T19:01:03Z</time></trkpt><trkpt lat="51.04402884592986" lon="2.3834696313124915"><ele>7.0</ele><time>2026-04-11T19:01:06Z</time></trkpt><trkpt lat="51.04397047850433" lon="2.3833905255774783"><ele>6.999999999999999</ele><time>2026-04-11T19:01:09Z</time></trkpt><trkpt lat="51.04393555048467" lon="2.383271736977545"><ele>6.999999999999999</ele><time>2026-04-11T19:01:13Z</time></trkpt><trkpt lat="51.043800059083125" lon="2.383228839930827"><ele>7.0</ele><time>2026-04-11T19:01:15Z</time></trkpt><trkpt lat="51.043716567562925" lon="2.3831898010145656"><ele>7.0</ele><time>2026-04-11T19:01:16Z</time></trkpt><trkpt lat="51.04360541036575" lon="2.3831465175294806"><ele>7.000000000000001</ele><time>2026-04-11T19:01:18Z</time></trkpt><trkpt lat="51.04352980730721" lon="2.3831068545950576"><ele>7.0</ele><time>2026-04-11T19:01:20Z</time></trkpt><trkpt lat="51.04349874856482" lon="2.382990336276373"><ele>7.0</ele><time>2026-04-11T19:01:22Z</time></trkpt><trkpt lat="51.043537884657226" lon="2.3828970055525756"><ele>7.0</ele><time>2026-04-11T19:01:24Z</time></trkpt><trkpt lat="51.043570508603985" lon="2.382766403153667"><ele>7.000000000000001</ele><time>2026-04-11T19:01:27Z</time></trkpt><trkpt lat="51.043614361851155" lon="2.382635942917681"><ele>7.0</ele><time>2026-04-11T19:01:30Z</time></trkpt><trkpt lat="51.04363928367195" lon="2.3825206323468247"><ele>7.000000000000001</ele><time>2026-04-11T19:01:32Z</time></trkpt><trkpt lat="51.043667766448074" lon="2.3824112001230606"><ele>7.0</ele><time>2026-04-11T19:01:34Z</time></trkpt><trkpt lat="51.043713602160274" lon="2.382333003314797"><ele>7.0</ele><time>2026-04-11T19:01:36Z</time></trkpt><trkpt lat="51.04377875379591" lon="2.3822898198083213"><ele>7.0</ele><time>2026-04-11T19:01:38Z</time></trkpt><trkpt lat="51.0438512416839" lon="2.3822118799076786"><ele>7.000000000000001</ele><time>2026-04-11T19:01:40Z</time></trkpt><trkpt lat="51.04392791476455" lon="2.3821381446459156"><ele>7.0</ele><time>2026-04-11T19:01:42Z</time></trkpt><trkpt lat="51.0439912333645" lon="2.382044769243482"><ele>6.833333333333334</ele><time>2026-04-11T19:01:44Z</time></trkpt><trkpt lat="51.04403108394103" lon="2.3819549609066533"><ele>6.666666666666667</ele><time>2026-04-11T19:01:47Z</time></trkpt><trkpt lat="51.0440316155759" lon="2.3817847105522434"><ele>6.5</ele><time>2026-04-11T19:01:50Z</time></trkpt><trkpt lat="51.04400285373318" lon="2.3816544064743126"><ele>6.333333333333334</ele><time>2026-04-11T19:01:51.999Z</time></trkpt><trkpt lat="51.04395810070461" lon="2.3815412217595737"><ele>6.166666666666667</ele><time>2026-04-11T19:01:54.999Z</time></trkpt><trkpt lat="51.04392655540376" lon="2.3814518504272724"><ele>6.0</ele><time>2026-04-11T19:01:56.999Z</time></trkpt><trkpt lat="51.043891260764134" lon="2.381352381245675"><ele>6.0</ele><time>2026-04-11T19:01:58.999Z</time></trkpt><trkpt lat="51.04384491652799" lon="2.3812678105496112"><ele>6.0</ele><time>2026-04-11T19:02:00.999Z</time></trkpt><trkpt lat="51.04381638401795" lon="2.3811635165966347"><ele>6.0</ele><time>2026-04-11T19:02:02.999Z</time></trkpt><trkpt lat="51.04376775462016" lon="2.381074818323863"><ele>6.0</ele><time>2026-04-11T19:02:04.999Z</time></trkpt><trkpt lat="51.04373950257819" lon="2.3809595754051496"><ele>6.0</ele><time>2026-04-11T19:02:07.999Z</time></trkpt><trkpt lat="51.04368569577045" lon="2.3808378129835654"><ele>6.0</ele><time>2026-04-11T19:02:10.999Z</time></trkpt><trkpt lat="51.04364334154169" lon="2.3806940983453084"><ele>6.0</ele><time>2026-04-11T19:02:13.999Z</time></trkpt><trkpt lat="51.04359618858058" lon="2.380610965949717"><ele>6.0</ele><time>2026-04-11T19:02:15.999Z</time></trkpt><trkpt lat="51.04357050101874" lon="2.380485046785094"><ele>6.0</ele><time>2026-04-11T19:02:18.999Z</time></trkpt><trkpt lat="51.04356203283387" lon="2.3803695117968595"><ele>6.0</ele><time>2026-04-11T19:02:21.999Z</time></trkpt><trkpt lat="51.04349196582714" lon="2.3803037263437377"><ele>6.0</ele><time>2026-04-11T19:02:23.999Z</time></trkpt><trkpt lat="51.043461014897304" lon="2.3801668307904396"><ele>6.0</ele><time>2026-04-11T19:02:25.999Z</time></trkpt><trkpt lat="51.043408546109696" lon="2.3800362585925576"><ele>5.833333333333333</ele><time>2026-04-11T19:02:27.999Z</time></trkpt><trkpt lat="51.043338271485275" lon="2.3799512493146295"><ele>5.666666666666667</ele><time>2026-04-11T19:02:29.999Z</time></trkpt><trkpt lat="51.04327455711031" lon="2.3798712734138676"><ele>5.5</ele><time>2026-04-11T19:02:31.999Z</time></trkpt><trkpt lat="51.04319256851392" lon="2.379815727559772"><ele>5.333333333333334</ele><time>2026-04-11T19:02:33.999Z</time></trkpt><trkpt lat="51.04311518036227" lon="2.379745538195299"><ele>5.166666666666667</ele><time>2026-04-11T19:02:36.999Z</time></trkpt><trkpt lat="51.04304001962378" lon="2.3796977670331962"><ele>5.0</ele><time>2026-04-11T19:02:38.999Z</time></trkpt><trkpt lat="51.04297979284115" lon="2.379610238928781"><ele>5.5</ele><time>2026-04-11T19:02:41.999Z</time></trkpt><trkpt lat="51.04291360064214" lon="2.3795167359324805"><ele>6.0</ele><time>2026-04-11T19:02:44.999Z</time></trkpt><trkpt lat="51.04286824413249" lon="2.379445670468384"><ele>6.5</ele><time>2026-04-11T19:02:46.999Z</time></trkpt><trkpt lat="51.042832839696985" lon="2.379323223014609"><ele>7.0</ele><time>2026-04-11T19:02:49.999Z</time></trkpt><trkpt lat="51.04282566867342" lon="2.379208023956411"><ele>7.499999999999999</ele><time>2026-04-11T19:02:51.999Z</time></trkpt><trkpt lat="51.04281476302124" lon="2.3790901144272834"><ele>8.0</ele><time>2026-04-11T19:02:54.999Z</time></trkpt><trkpt lat="51.04277309078251" lon="2.379005325412331"><ele>7.999999999999999</ele><time>2026-04-11T19:02:56.999Z</time></trkpt><trkpt lat="51.04272695347246" lon="2.378895983053876"><ele>8.0</ele><time>2026-04-11T19:02:58.999Z</time></trkpt><trkpt lat="51.0426823774535" lon="2.3787740901913326"><ele>8.0</ele><time>2026-04-11T19:03:00.998Z</time></trkpt><trkpt lat="51.042630199560406" lon="2.3786704107774104"><ele>8.0</ele><time>2026-04-11T19:03:02.998Z</time></trkpt><trkpt lat="51.042600345689394" lon="2.3785821239203697"><ele>7.999999999999999</ele><time>2026-04-11T19:03:04.998Z</time></trkpt><trkpt lat="51.04254849003044" lon="2.3785140237971794"><ele>8.0</ele><time>2026-04-11T19:03:08Z</time></trkpt><trkpt lat="51.042484340823364" lon="2.3783950493503"><ele>7.499999999999999</ele><time>2026-04-11T19:03:11Z</time></trkpt><trkpt lat="51.04243503710565" lon="2.378285846644468"><ele>7.0</ele><time>2026-04-11T19:03:13Z</time></trkpt><trkpt lat="51.04237336661142" lon="2.3782646643776544"><ele>6.5</ele><time>2026-04-11T19:03:14Z</time></trkpt><trkpt lat="51.04232529855797" lon="2.3783526367245575"><ele>6.0</ele><time>2026-04-11T19:03:15Z</time></trkpt><trkpt lat="51.04225246980124" lon="2.3784354539566412"><ele>5.5</ele><time>2026-04-11T19:03:17Z</time></trkpt><trkpt lat="51.042183595299" lon="2.3784860560805505"><ele>5.0</ele><time>2026-04-11T19:03:22Z</time></trkpt><trkpt lat="51.042113034812765" lon="2.378481573824367"><ele>5.0</ele><time>2026-04-11T19:03:26Z</time></trkpt><trkpt lat="51.042027776197905" lon="2.3784752807313474"><ele>5.0</ele><time>2026-04-11T19:03:32Z</time></trkpt><trkpt lat="51.04210597565617" lon="2.3785795237585576"><ele>5.0</ele><time>2026-04-11T19:03:36.019Z</time></trkpt><trkpt lat="51.04214584293099" lon="2.378740212778846"><ele>5.0</ele><time>2026-04-11T19:03:40.02Z</time></trkpt><trkpt lat="51.04211657011022" lon="2.378838046572894"><ele>5.0</ele><time>2026-04-11T19:03:50Z</time></trkpt><trkpt lat="51.04214875248542" lon="2.3789360045662904"><ele>5.0</ele><time>2026-04-11T19:06:02.999Z</time></trkpt><trkpt lat="51.042056083473234" lon="2.3791414282538814"><ele>5.0</ele><time>2026-04-11T19:06:37.999Z</time></trkpt><trkpt lat="51.04211016599781" lon="2.37926798989109"><ele>5.0</ele><time>2026-04-11T19:06:54.999Z</time></trkpt><trkpt lat="51.04203905849411" lon="2.3792005266441034"><ele>5.0</ele><time>2026-04-11T19:06:58.999Z</time></trkpt><trkpt lat="51.04207712156044" lon="2.379089302121935"><ele>5.0</ele><time>2026-04-11T19:07:00.999Z</time></trkpt><trkpt lat="51.042120649425094" lon="2.3789497522198"><ele>5.0</ele><time>2026-04-11T19:07:08.999Z</time></trkpt><trkpt lat="51.04216849462041" lon="2.378878449900854"><ele>5.0</ele><time>2026-04-11T19:07:23Z</time></trkpt><trkpt lat="51.04188197379349" lon="2.37878176583672"><ele>5.333333333333334</ele><time>2026-04-11T19:08:30.999Z</time></trkpt><trkpt lat="51.04191767983664" lon="2.3788932832512817"><ele>5.666666666666667</ele><time>2026-04-11T19:08:35.999Z</time></trkpt><trkpt lat="51.04198936151839" lon="2.3789088285112308"><ele>6.0</ele><time>2026-04-11T19:08:55.999Z</time></trkpt><trkpt lat="51.04198968415411" lon="2.3790136214329483"><ele>6.333333333333334</ele><time>2026-04-11T19:09:06.999Z</time></trkpt><trkpt lat="51.041925238780316" lon="2.3792185684699767"><ele>6.666666666666667</ele><time>2026-04-11T19:09:18.998Z</time></trkpt><trkpt lat="51.04191676886442" lon="2.379080686007067"><ele>7.0</ele><time>2026-04-11T19:09:20.014Z</time></trkpt><trkpt lat="51.041839437264976" lon="2.3788566098691564"><ele>7.0</ele><time>2026-04-11T19:09:32.016Z</time></trkpt><trkpt lat="51.04192589611297" lon="2.3789588756498894"><ele>7.0</ele><time>2026-04-11T19:09:37.998Z</time></trkpt><trkpt lat="51.041989519982515" lon="2.378873196923467"><ele>7.0</ele><time>2026-04-11T19:09:55Z</time></trkpt><trkpt lat="51.04203040500684" lon="2.3787423424994416"><ele>5.0</ele><time>2026-04-11T19:11:18.999Z</time></trkpt><trkpt lat="51.041959763749205" lon="2.378775573551581"><ele>5.0</ele><time>2026-04-11T19:11:26.999Z</time></trkpt></trkseg></trk></gpx>